sensor_id;sensor_type;location;lat;lon;timestamp;P1;durP1;ratioP1;P2;durP2;ratioP2
4198;SDS011;2113;50.946;14.610;2023-02-28T00:00:14;16.92;;;10.00;;
4198;SDS011;2113;50.946;14.610;2023-02-28T00:02:43;18.88;;;9.73;;
4198;SDS011;2113;50.946;14.610;2023-02-28T00:05:12;21.13;;;9.88;;
4198;SDS011;2113;50.946;14.610;2023-02-28T00:07:42;26.98;;;10.65;;
4198;SDS011;2113;50.946;14.610;2023-02-28T00:10:11;17.60;;;9.65;;
4198;SDS011;2113;50.946;14.610;2023-02-28T00:12:39;19.83;;;8.13;;
4198;SDS011;2113;50.946;14.610;2023-02-28T00:15:09;18.85;;;10.18;;
4198;SDS011;2113;50.946;14.610;2023-02-28T00:17:39;16.35;;;9.55;;
4198;SDS011;2113;50.946;14.610;2023-02-28T00:20:08;22.90;;;10.23;;
4198;SDS011;2113;50.946;14.610;2023-02-28T00:22:38;21.17;;;10.27;;
4198;SDS011;2113;50.946;14.610;2023-02-28T00:25:07;19.45;;;9.35;;
4198;SDS011;2113;50.946;14.610;2023-02-28T00:27:35;24.15;;;9.63;;
4198;SDS011;2113;50.946;14.610;2023-02-28T00:30:05;18.45;;;9.15;;
4198;SDS011;2113;50.946;14.610;2023-02-28T00:32:36;17.08;;;9.18;;
4198;SDS011;2113;50.946;14.610;2023-02-28T00:35:08;19.10;;;8.18;;
4198;SDS011;2113;50.946;14.610;2023-02-28T00:37:36;19.65;;;10.02;;
4198;SDS011;2113;50.946;14.610;2023-02-28T00:40:05;17.85;;;9.30;;
4198;SDS011;2113;50.946;14.610;2023-02-28T00:42:33;15.30;;;8.88;;
4198;SDS011;2113;50.946;14.610;2023-02-28T00:45:02;17.52;;;8.05;;
4198;SDS011;2113;50.946;14.610;2023-02-28T00:47:31;16.02;;;8.02;;
4198;SDS011;2113;50.946;14.610;2023-02-28T00:50:00;18.13;;;9.50;;
4198;SDS011;2113;50.946;14.610;2023-02-28T00:52:29;24.20;;;9.18;;
4198;SDS011;2113;50.946;14.610;2023-02-28T00:54:58;19.08;;;7.90;;
4198;SDS011;2113;50.946;14.610;2023-02-28T00:57:26;21.90;;;8.18;;
4198;SDS011;2113;50.946;14.610;2023-02-28T00:59:54;17.40;;;8.82;;
4198;SDS011;2113;50.946;14.610;2023-02-28T01:02:22;25.98;;;9.35;;
4198;SDS011;2113;50.946;14.610;2023-02-28T01:04:51;18.17;;;9.13;;
4198;SDS011;2113;50.946;14.610;2023-02-28T01:07:20;19.23;;;8.65;;
4198;SDS011;2113;50.946;14.610;2023-02-28T01:09:50;25.38;;;10.30;;
4198;SDS011;2113;50.946;14.610;2023-02-28T01:12:18;17.42;;;7.90;;
4198;SDS011;2113;50.946;14.610;2023-02-28T01:14:46;16.15;;;8.02;;
4198;SDS011;2113;50.946;14.610;2023-02-28T01:17:14;16.23;;;8.35;;
4198;SDS011;2113;50.946;14.610;2023-02-28T01:19:42;17.00;;;9.00;;
4198;SDS011;2113;50.946;14.610;2023-02-28T01:22:10;17.63;;;9.60;;
4198;SDS011;2113;50.946;14.610;2023-02-28T01:24:41;17.90;;;8.10;;
4198;SDS011;2113;50.946;14.610;2023-02-28T01:27:13;24.23;;;10.15;;
4198;SDS011;2113;50.946;14.610;2023-02-28T01:29:41;21.13;;;9.30;;
4198;SDS011;2113;50.946;14.610;2023-02-28T01:32:10;17.95;;;8.07;;
4198;SDS011;2113;50.946;14.610;2023-02-28T01:34:38;18.75;;;9.63;;
4198;SDS011;2113;50.946;14.610;2023-02-28T01:37:06;22.50;;;10.35;;
4198;SDS011;2113;50.946;14.610;2023-02-28T01:39:35;21.00;;;10.45;;
4198;SDS011;2113;50.946;14.610;2023-02-28T01:42:03;25.63;;;10.15;;
4198;SDS011;2113;50.946;14.610;2023-02-28T01:47:21;20.15;;;10.38;;
4198;SDS011;2113;50.946;14.610;2023-02-28T01:49:50;28.38;;;11.48;;
4198;SDS011;2113;50.946;14.610;2023-02-28T01:52:19;19.90;;;9.50;;
4198;SDS011;2113;50.946;14.610;2023-02-28T01:54:51;18.10;;;9.55;;
4198;SDS011;2113;50.946;14.610;2023-02-28T01:57:20;24.05;;;9.35;;
4198;SDS011;2113;50.946;14.610;2023-02-28T01:59:51;21.38;;;9.90;;
4198;SDS011;2113;50.946;14.610;2023-02-28T02:02:20;23.67;;;11.75;;
4198;SDS011;2113;50.946;14.610;2023-02-28T02:04:51;26.30;;;9.85;;
4198;SDS011;2113;50.946;14.610;2023-02-28T02:07:20;128.38;;;39.15;;
4198;SDS011;2113;50.946;14.610;2023-02-28T02:09:48;86.90;;;23.40;;
4198;SDS011;2113;50.946;14.610;2023-02-28T02:12:20;31.90;;;14.32;;
4198;SDS011;2113;50.946;14.610;2023-02-28T02:14:55;46.95;;;18.40;;
4198;SDS011;2113;50.946;14.610;2023-02-28T02:17:30;57.30;;;17.98;;
4198;SDS011;2113;50.946;14.610;2023-02-28T02:22:55;40.72;;;13.18;;
4198;SDS011;2113;50.946;14.610;2023-02-28T02:25:30;29.73;;;11.73;;
4198;SDS011;2113;50.946;14.610;2023-02-28T02:28:18;23.02;;;10.75;;
4198;SDS011;2113;50.946;14.610;2023-02-28T02:31:06;22.85;;;9.95;;
4198;SDS011;2113;50.946;14.610;2023-02-28T02:33:45;23.65;;;10.43;;
4198;SDS011;2113;50.946;14.610;2023-02-28T02:36:21;21.25;;;9.95;;
4198;SDS011;2113;50.946;14.610;2023-02-28T02:38:52;35.20;;;12.85;;
4198;SDS011;2113;50.946;14.610;2023-02-28T02:41:23;26.95;;;10.52;;
4198;SDS011;2113;50.946;14.610;2023-02-28T02:43:54;40.17;;;13.55;;
4198;SDS011;2113;50.946;14.610;2023-02-28T02:46:26;18.38;;;10.68;;
4198;SDS011;2113;50.946;14.610;2023-02-28T02:48:58;22.15;;;12.10;;
4198;SDS011;2113;50.946;14.610;2023-02-28T02:51:29;26.92;;;12.10;;
4198;SDS011;2113;50.946;14.610;2023-02-28T02:54:00;19.55;;;11.05;;
4198;SDS011;2113;50.946;14.610;2023-02-28T02:56:30;26.60;;;11.73;;
4198;SDS011;2113;50.946;14.610;2023-02-28T02:59:01;25.13;;;10.75;;
4198;SDS011;2113;50.946;14.610;2023-02-28T03:01:30;28.40;;;12.93;;
4198;SDS011;2113;50.946;14.610;2023-02-28T03:04:01;31.13;;;13.85;;
4198;SDS011;2113;50.946;14.610;2023-02-28T03:06:31;25.52;;;12.48;;
4198;SDS011;2113;50.946;14.610;2023-02-28T03:09:00;31.52;;;12.73;;
4198;SDS011;2113;50.946;14.610;2023-02-28T03:11:28;25.23;;;11.30;;
4198;SDS011;2113;50.946;14.610;2023-02-28T03:14:06;36.15;;;13.85;;
4198;SDS011;2113;50.946;14.610;2023-02-28T03:16:43;21.45;;;11.52;;
4198;SDS011;2113;50.946;14.610;2023-02-28T03:19:19;25.95;;;14.82;;
4198;SDS011;2113;50.946;14.610;2023-02-28T03:21:54;26.52;;;12.38;;
4198;SDS011;2113;50.946;14.610;2023-02-28T03:24:25;29.75;;;12.25;;
4198;SDS011;2113;50.946;14.610;2023-02-28T03:26:55;30.40;;;12.38;;
4198;SDS011;2113;50.946;14.610;2023-02-28T03:29:28;34.65;;;13.25;;
4198;SDS011;2113;50.946;14.610;2023-02-28T03:31:59;29.23;;;13.65;;
4198;SDS011;2113;50.946;14.610;2023-02-28T03:34:31;27.75;;;12.88;;
4198;SDS011;2113;50.946;14.610;2023-02-28T03:37:04;24.83;;;12.30;;
4198;SDS011;2113;50.946;14.610;2023-02-28T03:39:35;25.67;;;11.82;;
4198;SDS011;2113;50.946;14.610;2023-02-28T03:42:05;26.52;;;12.90;;
4198;SDS011;2113;50.946;14.610;2023-02-28T03:44:34;28.85;;;11.57;;
4198;SDS011;2113;50.946;14.610;2023-02-28T03:47:03;25.20;;;12.60;;
4198;SDS011;2113;50.946;14.610;2023-02-28T03:49:34;33.30;;;16.02;;
4198;SDS011;2113;50.946;14.610;2023-02-28T03:52:05;28.52;;;13.77;;
4198;SDS011;2113;50.946;14.610;2023-02-28T03:58:41;24.20;;;12.93;;
4198;SDS011;2113;50.946;14.610;2023-02-28T04:01:12;29.15;;;13.02;;
4198;SDS011;2113;50.946;14.610;2023-02-28T04:03:40;22.92;;;12.60;;
4198;SDS011;2113;50.946;14.610;2023-02-28T04:06:13;29.10;;;13.70;;
4198;SDS011;2113;50.946;14.610;2023-02-28T04:08:44;27.58;;;12.10;;
4198;SDS011;2113;50.946;14.610;2023-02-28T04:11:16;23.95;;;13.07;;
4198;SDS011;2113;50.946;14.610;2023-02-28T04:13:46;27.52;;;12.80;;
4198;SDS011;2113;50.946;14.610;2023-02-28T04:16:14;28.27;;;12.65;;
4198;SDS011;2113;50.946;14.610;2023-02-28T04:19:00;24.58;;;12.85;;
4198;SDS011;2113;50.946;14.610;2023-02-28T04:21:30;27.30;;;12.70;;
4198;SDS011;2113;50.946;14.610;2023-02-28T04:24:00;28.50;;;11.98;;
4198;SDS011;2113;50.946;14.610;2023-02-28T04:26:29;26.85;;;11.90;;
4198;SDS011;2113;50.946;14.610;2023-02-28T04:28:57;27.63;;;13.45;;
4198;SDS011;2113;50.946;14.610;2023-02-28T04:31:26;31.60;;;13.20;;
4198;SDS011;2113;50.946;14.610;2023-02-28T04:33:55;21.95;;;10.98;;
4198;SDS011;2113;50.946;14.610;2023-02-28T04:36:23;24.77;;;11.50;;
4198;SDS011;2113;50.946;14.610;2023-02-28T04:38:51;27.45;;;11.50;;
4198;SDS011;2113;50.946;14.610;2023-02-28T04:41:20;34.08;;;12.57;;
4198;SDS011;2113;50.946;14.610;2023-02-28T04:43:50;30.52;;;11.48;;
4198;SDS011;2113;50.946;14.610;2023-02-28T04:46:18;31.05;;;13.80;;
4198;SDS011;2113;50.946;14.610;2023-02-28T04:48:47;25.67;;;11.10;;
4198;SDS011;2113;50.946;14.610;2023-02-28T04:51:16;20.50;;;10.88;;
4198;SDS011;2113;50.946;14.610;2023-02-28T04:53:45;24.58;;;10.68;;
4198;SDS011;2113;50.946;14.610;2023-02-28T04:56:14;21.15;;;10.52;;
4198;SDS011;2113;50.946;14.610;2023-02-28T04:58:43;18.95;;;9.95;;
4198;SDS011;2113;50.946;14.610;2023-02-28T05:01:22;22.95;;;10.90;;
4198;SDS011;2113;50.946;14.610;2023-02-28T05:03:52;21.73;;;9.60;;
4198;SDS011;2113;50.946;14.610;2023-02-28T05:06:21;21.17;;;10.30;;
4198;SDS011;2113;50.946;14.610;2023-02-28T05:08:50;26.02;;;10.70;;
4198;SDS011;2113;50.946;14.610;2023-02-28T05:11:19;29.25;;;11.63;;
4198;SDS011;2113;50.946;14.610;2023-02-28T05:13:50;28.00;;;11.30;;
4198;SDS011;2113;50.946;14.610;2023-02-28T05:16:18;25.83;;;12.05;;
4198;SDS011;2113;50.946;14.610;2023-02-28T05:18:47;27.10;;;11.60;;
4198;SDS011;2113;50.946;14.610;2023-02-28T05:21:25;22.38;;;9.70;;
4198;SDS011;2113;50.946;14.610;2023-02-28T05:23:55;25.27;;;11.40;;
4198;SDS011;2113;50.946;14.610;2023-02-28T05:26:24;21.10;;;11.32;;
4198;SDS011;2113;50.946;14.610;2023-02-28T05:28:54;24.52;;;10.63;;
4198;SDS011;2113;50.946;14.610;2023-02-28T05:31:22;21.15;;;10.80;;
4198;SDS011;2113;50.946;14.610;2023-02-28T05:33:50;22.98;;;10.65;;
4198;SDS011;2113;50.946;14.610;2023-02-28T05:36:18;19.83;;;10.60;;
4198;SDS011;2113;50.946;14.610;2023-02-28T05:38:49;28.55;;;12.52;;
4198;SDS011;2113;50.946;14.610;2023-02-28T05:41:17;23.10;;;12.40;;
4198;SDS011;2113;50.946;14.610;2023-02-28T05:43:47;26.08;;;13.60;;
4198;SDS011;2113;50.946;14.610;2023-02-28T05:46:16;22.85;;;10.27;;
4198;SDS011;2113;50.946;14.610;2023-02-28T05:48:45;20.77;;;11.45;;
4198;SDS011;2113;50.946;14.610;2023-02-28T05:51:14;21.73;;;10.57;;
4198;SDS011;2113;50.946;14.610;2023-02-28T05:53:42;21.83;;;11.63;;
4198;SDS011;2113;50.946;14.610;2023-02-28T05:56:10;25.60;;;12.55;;
4198;SDS011;2113;50.946;14.610;2023-02-28T05:58:39;17.35;;;9.05;;
4198;SDS011;2113;50.946;14.610;2023-02-28T06:01:22;25.10;;;10.68;;
4198;SDS011;2113;50.946;14.610;2023-02-28T06:03:50;25.30;;;12.70;;
4198;SDS011;2113;50.946;14.610;2023-02-28T06:06:19;22.52;;;11.38;;
4198;SDS011;2113;50.946;14.610;2023-02-28T06:08:47;28.83;;;11.65;;
4198;SDS011;2113;50.946;14.610;2023-02-28T06:11:15;32.10;;;11.80;;
4198;SDS011;2113;50.946;14.610;2023-02-28T06:13:43;24.00;;;11.52;;
4198;SDS011;2113;50.946;14.610;2023-02-28T06:16:11;24.40;;;11.70;;
4198;SDS011;2113;50.946;14.610;2023-02-28T06:18:41;23.85;;;10.57;;
4198;SDS011;2113;50.946;14.610;2023-02-28T06:21:09;25.10;;;11.30;;
4198;SDS011;2113;50.946;14.610;2023-02-28T06:23:37;26.23;;;11.60;;
4198;SDS011;2113;50.946;14.610;2023-02-28T06:26:05;20.63;;;11.13;;
4198;SDS011;2113;50.946;14.610;2023-02-28T06:28:33;28.65;;;13.32;;
4198;SDS011;2113;50.946;14.610;2023-02-28T06:31:05;21.75;;;11.00;;
4198;SDS011;2113;50.946;14.610;2023-02-28T06:33:34;23.20;;;11.13;;
4198;SDS011;2113;50.946;14.610;2023-02-28T06:36:05;24.27;;;12.25;;
4198;SDS011;2113;50.946;14.610;2023-02-28T06:38:33;28.60;;;12.90;;
4198;SDS011;2113;50.946;14.610;2023-02-28T06:41:01;29.63;;;15.35;;
4198;SDS011;2113;50.946;14.610;2023-02-28T06:43:31;33.15;;;15.05;;
4198;SDS011;2113;50.946;14.610;2023-02-28T06:46:00;31.77;;;15.35;;
4198;SDS011;2113;50.946;14.610;2023-02-28T06:48:28;20.65;;;12.57;;
4198;SDS011;2113;50.946;14.610;2023-02-28T06:51:05;26.15;;;11.30;;
4198;SDS011;2113;50.946;14.610;2023-02-28T06:53:34;32.28;;;13.70;;
4198;SDS011;2113;50.946;14.610;2023-02-28T06:56:03;24.52;;;12.73;;
4198;SDS011;2113;50.946;14.610;2023-02-28T06:58:32;23.08;;;11.48;;
4198;SDS011;2113;50.946;14.610;2023-02-28T07:01:00;27.90;;;13.30;;
4198;SDS011;2113;50.946;14.610;2023-02-28T07:03:28;32.17;;;14.52;;
4198;SDS011;2113;50.946;14.610;2023-02-28T07:06:00;25.85;;;12.35;;
4198;SDS011;2113;50.946;14.610;2023-02-28T07:08:29;29.38;;;12.98;;
4198;SDS011;2113;50.946;14.610;2023-02-28T07:10:58;25.77;;;12.63;;
4198;SDS011;2113;50.946;14.610;2023-02-28T07:13:26;24.75;;;13.70;;
4198;SDS011;2113;50.946;14.610;2023-02-28T07:15:54;33.33;;;16.92;;
4198;SDS011;2113;50.946;14.610;2023-02-28T07:18:23;37.63;;;15.93;;
4198;SDS011;2113;50.946;14.610;2023-02-28T07:20:51;30.25;;;14.55;;
4198;SDS011;2113;50.946;14.610;2023-02-28T07:23:20;31.45;;;15.68;;
4198;SDS011;2113;50.946;14.610;2023-02-28T07:25:50;34.17;;;16.02;;
4198;SDS011;2113;50.946;14.610;2023-02-28T07:29:56;42.47;;;18.67;;
4198;SDS011;2113;50.946;14.610;2023-02-28T07:32:28;39.28;;;20.25;;
4198;SDS011;2113;50.946;14.610;2023-02-28T07:34:57;34.60;;;20.98;;
4198;SDS011;2113;50.946;14.610;2023-02-28T07:37:25;36.40;;;19.33;;
4198;SDS011;2113;50.946;14.610;2023-02-28T07:39:53;28.98;;;17.80;;
4198;SDS011;2113;50.946;14.610;2023-02-28T07:42:21;30.27;;;19.52;;
4198;SDS011;2113;50.946;14.610;2023-02-28T07:44:50;27.00;;;16.63;;
4198;SDS011;2113;50.946;14.610;2023-02-28T07:47:21;31.30;;;16.83;;
4198;SDS011;2113;50.946;14.610;2023-02-28T07:49:50;33.22;;;19.35;;
4198;SDS011;2113;50.946;14.610;2023-02-28T07:52:19;36.85;;;20.30;;
4198;SDS011;2113;50.946;14.610;2023-02-28T07:54:48;31.75;;;18.20;;
4198;SDS011;2113;50.946;14.610;2023-02-28T07:57:16;27.75;;;16.48;;
4198;SDS011;2113;50.946;14.610;2023-02-28T07:59:45;28.85;;;16.88;;
4198;SDS011;2113;50.946;14.610;2023-02-28T08:02:14;26.05;;;16.90;;
4198;SDS011;2113;50.946;14.610;2023-02-28T08:04:45;29.45;;;17.08;;
4198;SDS011;2113;50.946;14.610;2023-02-28T08:07:14;23.83;;;16.50;;
4198;SDS011;2113;50.946;14.610;2023-02-28T08:09:43;23.60;;;17.63;;
4198;SDS011;2113;50.946;14.610;2023-02-28T08:12:12;24.50;;;18.35;;
4198;SDS011;2113;50.946;14.610;2023-02-28T08:14:40;24.73;;;17.42;;
4198;SDS011;2113;50.946;14.610;2023-02-28T08:17:09;24.25;;;15.88;;
4198;SDS011;2113;50.946;14.610;2023-02-28T08:19:38;20.75;;;15.82;;
4198;SDS011;2113;50.946;14.610;2023-02-28T08:22:08;22.73;;;15.80;;
4198;SDS011;2113;50.946;14.610;2023-02-28T08:24:36;15.30;;;9.73;;
4198;SDS011;2113;50.946;14.610;2023-02-28T08:27:05;10.73;;;6.63;;
4198;SDS011;2113;50.946;14.610;2023-02-28T08:29:33;8.07;;;5.82;;
4198;SDS011;2113;50.946;14.610;2023-02-28T08:32:02;9.52;;;6.22;;
4198;SDS011;2113;50.946;14.610;2023-02-28T08:34:30;11.70;;;7.20;;
4198;SDS011;2113;50.946;14.610;2023-02-28T08:36:58;8.38;;;6.35;;
4198;SDS011;2113;50.946;14.610;2023-02-28T08:39:28;10.05;;;6.00;;
4198;SDS011;2113;50.946;14.610;2023-02-28T08:41:56;9.13;;;5.72;;
4198;SDS011;2113;50.946;14.610;2023-02-28T08:44:33;9.93;;;5.38;;
4198;SDS011;2113;50.946;14.610;2023-02-28T08:47:02;7.78;;;5.15;;
4198;SDS011;2113;50.946;14.610;2023-02-28T08:49:30;10.23;;;5.78;;
4198;SDS011;2113;50.946;14.610;2023-02-28T08:51:59;9.77;;;5.32;;
4198;SDS011;2113;50.946;14.610;2023-02-28T08:54:28;11.75;;;5.68;;
4198;SDS011;2113;50.946;14.610;2023-02-28T08:56:58;8.40;;;5.47;;
4198;SDS011;2113;50.946;14.610;2023-02-28T08:59:26;11.55;;;5.93;;
4198;SDS011;2113;50.946;14.610;2023-02-28T09:01:55;8.00;;;5.30;;
4198;SDS011;2113;50.946;14.610;2023-02-28T09:04:23;7.90;;;5.70;;
4198;SDS011;2113;50.946;14.610;2023-02-28T09:06:51;11.07;;;5.35;;
4198;SDS011;2113;50.946;14.610;2023-02-28T09:09:19;11.60;;;6.50;;
4198;SDS011;2113;50.946;14.610;2023-02-28T09:11:49;10.45;;;6.50;;
4198;SDS011;2113;50.946;14.610;2023-02-28T09:14:17;10.57;;;5.32;;
4198;SDS011;2113;50.946;14.610;2023-02-28T09:16:46;6.88;;;5.10;;
4198;SDS011;2113;50.946;14.610;2023-02-28T09:19:15;13.90;;;6.00;;
4198;SDS011;2113;50.946;14.610;2023-02-28T09:21:48;10.52;;;6.00;;
4198;SDS011;2113;50.946;14.610;2023-02-28T09:24:16;11.15;;;6.20;;
4198;SDS011;2113;50.946;14.610;2023-02-28T09:26:46;9.40;;;5.10;;
4198;SDS011;2113;50.946;14.610;2023-02-28T09:29:31;10.70;;;6.63;;
4198;SDS011;2113;50.946;14.610;2023-02-28T09:32:00;12.63;;;7.82;;
4198;SDS011;2113;50.946;14.610;2023-02-28T09:34:32;11.10;;;7.25;;
4198;SDS011;2113;50.946;14.610;2023-02-28T09:37:00;10.52;;;6.45;;
4198;SDS011;2113;50.946;14.610;2023-02-28T09:39:29;12.15;;;6.10;;
4198;SDS011;2113;50.946;14.610;2023-02-28T09:42:58;13.20;;;7.03;;
4198;SDS011;2113;50.946;14.610;2023-02-28T09:45:36;13.07;;;5.95;;
4198;SDS011;2113;50.946;14.610;2023-02-28T09:48:12;16.25;;;8.23;;
4198;SDS011;2113;50.946;14.610;2023-02-28T09:50:43;12.63;;;7.20;;
4198;SDS011;2113;50.946;14.610;2023-02-28T09:53:18;9.82;;;6.15;;
4198;SDS011;2113;50.946;14.610;2023-02-28T09:55:50;10.57;;;6.93;;
4198;SDS011;2113;50.946;14.610;2023-02-28T09:58:23;8.20;;;6.03;;
4198;SDS011;2113;50.946;14.610;2023-02-28T10:00:59;12.00;;;6.65;;
4198;SDS011;2113;50.946;14.610;2023-02-28T10:03:35;8.48;;;5.57;;
4198;SDS011;2113;50.946;14.610;2023-02-28T10:06:10;10.27;;;5.88;;
4198;SDS011;2113;50.946;14.610;2023-02-28T10:08:43;10.32;;;6.38;;
4198;SDS011;2113;50.946;14.610;2023-02-28T10:11:18;10.02;;;5.57;;
4198;SDS011;2113;50.946;14.610;2023-02-28T10:13:53;10.05;;;6.22;;
4198;SDS011;2113;50.946;14.610;2023-02-28T10:16:30;11.07;;;5.65;;
4198;SDS011;2113;50.946;14.610;2023-02-28T10:19:03;10.07;;;6.55;;
4198;SDS011;2113;50.946;14.610;2023-02-28T10:21:35;8.73;;;5.05;;
4198;SDS011;2113;50.946;14.610;2023-02-28T10:24:12;11.40;;;7.85;;
4198;SDS011;2113;50.946;14.610;2023-02-28T10:26:59;10.95;;;6.63;;
4198;SDS011;2113;50.946;14.610;2023-02-28T10:29:31;14.07;;;7.55;;
4198;SDS011;2113;50.946;14.610;2023-02-28T10:32:02;9.48;;;6.53;;
4198;SDS011;2113;50.946;14.610;2023-02-28T10:34:32;13.43;;;7.97;;
4198;SDS011;2113;50.946;14.610;2023-02-28T10:37:00;11.23;;;7.85;;
4198;SDS011;2113;50.946;14.610;2023-02-28T10:39:35;10.75;;;6.35;;
4198;SDS011;2113;50.946;14.610;2023-02-28T10:42:20;11.73;;;6.60;;
4198;SDS011;2113;50.946;14.610;2023-02-28T10:45:04;10.23;;;7.10;;
4198;SDS011;2113;50.946;14.610;2023-02-28T10:47:40;13.20;;;6.90;;
4198;SDS011;2113;50.946;14.610;2023-02-28T10:50:26;9.45;;;6.45;;
4198;SDS011;2113;50.946;14.610;2023-02-28T10:53:05;11.02;;;7.65;;
4198;SDS011;2113;50.946;14.610;2023-02-28T10:55:43;11.10;;;7.70;;
4198;SDS011;2113;50.946;14.610;2023-02-28T10:58:20;15.68;;;7.95;;
4198;SDS011;2113;50.946;14.610;2023-02-28T11:00:50;10.30;;;6.90;;
4198;SDS011;2113;50.946;14.610;2023-02-28T11:03:25;13.18;;;8.35;;
4198;SDS011;2113;50.946;14.610;2023-02-28T11:05:58;15.73;;;8.60;;
4198;SDS011;2113;50.946;14.610;2023-02-28T11:08:32;13.73;;;8.45;;
4198;SDS011;2113;50.946;14.610;2023-02-28T11:11:03;12.77;;;8.52;;
4198;SDS011;2113;50.946;14.610;2023-02-28T11:13:34;15.13;;;8.98;;
4198;SDS011;2113;50.946;14.610;2023-02-28T11:16:05;12.30;;;7.63;;
4198;SDS011;2113;50.946;14.610;2023-02-28T11:18:40;15.60;;;8.00;;
4198;SDS011;2113;50.946;14.610;2023-02-28T11:21:15;11.30;;;7.70;;
4198;SDS011;2113;50.946;14.610;2023-02-28T11:23:46;13.35;;;8.40;;
4198;SDS011;2113;50.946;14.610;2023-02-28T11:29:17;10.93;;;7.75;;
4198;SDS011;2113;50.946;14.610;2023-02-28T11:32:01;13.30;;;7.78;;
4198;SDS011;2113;50.946;14.610;2023-02-28T11:34:33;15.95;;;8.95;;
4198;SDS011;2113;50.946;14.610;2023-02-28T11:37:09;12.18;;;7.57;;
4198;SDS011;2113;50.946;14.610;2023-02-28T11:39:39;15.40;;;8.32;;
4198;SDS011;2113;50.946;14.610;2023-02-28T11:42:22;13.88;;;8.00;;
4198;SDS011;2113;50.946;14.610;2023-02-28T11:45:07;15.02;;;8.60;;
4198;SDS011;2113;50.946;14.610;2023-02-28T11:47:45;13.10;;;7.95;;
4198;SDS011;2113;50.946;14.610;2023-02-28T11:50:36;10.73;;;7.53;;
4198;SDS011;2113;50.946;14.610;2023-02-28T11:53:22;12.98;;;8.60;;
4198;SDS011;2113;50.946;14.610;2023-02-28T11:56:03;14.90;;;8.65;;
4198;SDS011;2113;50.946;14.610;2023-02-28T11:58:38;15.65;;;8.88;;
4198;SDS011;2113;50.946;14.610;2023-02-28T12:01:22;12.30;;;8.45;;
4198;SDS011;2113;50.946;14.610;2023-02-28T12:04:04;10.88;;;7.55;;
4198;SDS011;2113;50.946;14.610;2023-02-28T12:06:47;12.43;;;8.40;;
4198;SDS011;2113;50.946;14.610;2023-02-28T12:09:34;16.13;;;9.32;;
4198;SDS011;2113;50.946;14.610;2023-02-28T12:12:15;13.63;;;9.20;;
4198;SDS011;2113;50.946;14.610;2023-02-28T12:15:00;16.90;;;11.90;;
4198;SDS011;2113;50.946;14.610;2023-02-28T12:17:44;11.65;;;7.30;;
4198;SDS011;2113;50.946;14.610;2023-02-28T12:20:22;11.13;;;8.35;;
4198;SDS011;2113;50.946;14.610;2023-02-28T12:22:59;14.95;;;9.00;;
4198;SDS011;2113;50.946;14.610;2023-02-28T12:25:40;12.50;;;8.05;;
4198;SDS011;2113;50.946;14.610;2023-02-28T12:28:20;12.88;;;8.60;;
4198;SDS011;2113;50.946;14.610;2023-02-28T12:30:53;12.35;;;7.97;;
4198;SDS011;2113;50.946;14.610;2023-02-28T12:33:27;14.98;;;7.28;;
4198;SDS011;2113;50.946;14.610;2023-02-28T12:36:01;12.38;;;8.50;;
4198;SDS011;2113;50.946;14.610;2023-02-28T12:38:36;14.82;;;8.90;;
4198;SDS011;2113;50.946;14.610;2023-02-28T12:41:10;18.88;;;9.25;;
4198;SDS011;2113;50.946;14.610;2023-02-28T12:43:42;18.42;;;9.95;;
4198;SDS011;2113;50.946;14.610;2023-02-28T12:46:14;15.93;;;10.30;;
4198;SDS011;2113;50.946;14.610;2023-02-28T12:48:48;13.73;;;10.15;;
4198;SDS011;2113;50.946;14.610;2023-02-28T12:51:20;17.77;;;9.73;;
4198;SDS011;2113;50.946;14.610;2023-02-28T12:53:52;14.70;;;10.00;;
4198;SDS011;2113;50.946;14.610;2023-02-28T12:56:30;11.77;;;8.75;;
4198;SDS011;2113;50.946;14.610;2023-02-28T12:59:06;18.70;;;11.45;;
4198;SDS011;2113;50.946;14.610;2023-02-28T13:01:44;16.30;;;11.35;;
4198;SDS011;2113;50.946;14.610;2023-02-28T13:07:49;20.00;;;9.63;;
4198;SDS011;2113;50.946;14.610;2023-02-28T13:10:43;14.30;;;9.25;;
4198;SDS011;2113;50.946;14.610;2023-02-28T13:13:17;13.57;;;8.98;;
4198;SDS011;2113;50.946;14.610;2023-02-28T13:15:56;12.95;;;9.20;;
4198;SDS011;2113;50.946;14.610;2023-02-28T13:18:28;16.38;;;9.75;;
4198;SDS011;2113;50.946;14.610;2023-02-28T13:21:00;11.32;;;8.82;;
4198;SDS011;2113;50.946;14.610;2023-02-28T13:23:37;14.98;;;10.23;;
4198;SDS011;2113;50.946;14.610;2023-02-28T13:29:32;14.57;;;8.40;;
4198;SDS011;2113;50.946;14.610;2023-02-28T13:35:12;16.23;;;8.90;;
4198;SDS011;2113;50.946;14.610;2023-02-28T13:44:05;21.63;;;9.35;;
4198;SDS011;2113;50.946;14.610;2023-02-28T13:46:37;15.70;;;10.00;;
4198;SDS011;2113;50.946;14.610;2023-02-28T13:49:43;14.95;;;9.68;;
4198;SDS011;2113;50.946;14.610;2023-02-28T13:52:12;16.48;;;8.57;;
4198;SDS011;2113;50.946;14.610;2023-02-28T13:54:54;16.33;;;10.32;;
4198;SDS011;2113;50.946;14.610;2023-02-28T13:57:42;16.13;;;8.65;;
4198;SDS011;2113;50.946;14.610;2023-02-28T14:00:26;17.27;;;8.88;;
4198;SDS011;2113;50.946;14.610;2023-02-28T14:06:09;19.38;;;9.73;;
4198;SDS011;2113;50.946;14.610;2023-02-28T14:08:47;16.35;;;8.95;;
4198;SDS011;2113;50.946;14.610;2023-02-28T14:11:26;13.88;;;8.70;;
4198;SDS011;2113;50.946;14.610;2023-02-28T14:13:58;22.55;;;10.63;;
4198;SDS011;2113;50.946;14.610;2023-02-28T14:16:27;14.95;;;10.30;;
4198;SDS011;2113;50.946;14.610;2023-02-28T14:19:12;15.68;;;9.93;;
4198;SDS011;2113;50.946;14.610;2023-02-28T14:21:53;18.50;;;10.90;;
4198;SDS011;2113;50.946;14.610;2023-02-28T14:24:47;13.98;;;9.23;;
4198;SDS011;2113;50.946;14.610;2023-02-28T14:27:41;16.60;;;9.50;;
4198;SDS011;2113;50.946;14.610;2023-02-28T14:30:26;17.80;;;10.50;;
4198;SDS011;2113;50.946;14.610;2023-02-28T14:33:21;19.85;;;11.07;;
4198;SDS011;2113;50.946;14.610;2023-02-28T14:36:03;16.85;;;9.55;;
4198;SDS011;2113;50.946;14.610;2023-02-28T14:38:39;15.15;;;10.18;;
4198;SDS011;2113;50.946;14.610;2023-02-28T14:41:15;13.40;;;10.43;;
4198;SDS011;2113;50.946;14.610;2023-02-28T14:43:49;21.80;;;10.43;;
4198;SDS011;2113;50.946;14.610;2023-02-28T14:46:20;17.30;;;10.02;;
4198;SDS011;2113;50.946;14.610;2023-02-28T14:48:49;16.70;;;9.80;;
4198;SDS011;2113;50.946;14.610;2023-02-28T14:51:20;17.67;;;10.23;;
4198;SDS011;2113;50.946;14.610;2023-02-28T14:53:51;17.98;;;10.60;;
4198;SDS011;2113;50.946;14.610;2023-02-28T14:56:26;15.52;;;10.00;;
4198;SDS011;2113;50.946;14.610;2023-02-28T14:58:58;18.58;;;10.23;;
4198;SDS011;2113;50.946;14.610;2023-02-28T15:01:26;17.65;;;10.18;;
4198;SDS011;2113;50.946;14.610;2023-02-28T15:03:58;18.65;;;11.98;;
4198;SDS011;2113;50.946;14.610;2023-02-28T15:06:32;18.98;;;9.18;;
4198;SDS011;2113;50.946;14.610;2023-02-28T15:09:07;22.48;;;11.10;;
4198;SDS011;2113;50.946;14.610;2023-02-28T15:11:38;16.98;;;9.32;;
4198;SDS011;2113;50.946;14.610;2023-02-28T15:14:13;14.07;;;9.60;;
4198;SDS011;2113;50.946;14.610;2023-02-28T15:16:46;18.10;;;10.98;;
4198;SDS011;2113;50.946;14.610;2023-02-28T15:19:20;22.58;;;11.10;;
4198;SDS011;2113;50.946;14.610;2023-02-28T15:21:54;17.55;;;9.57;;
4198;SDS011;2113;50.946;14.610;2023-02-28T15:24:30;20.90;;;10.85;;
4198;SDS011;2113;50.946;14.610;2023-02-28T15:27:06;17.88;;;10.10;;
4198;SDS011;2113;50.946;14.610;2023-02-28T15:29:43;19.05;;;11.57;;
4198;SDS011;2113;50.946;14.610;2023-02-28T15:32:21;17.08;;;11.25;;
4198;SDS011;2113;50.946;14.610;2023-02-28T15:34:54;21.27;;;11.25;;
4198;SDS011;2113;50.946;14.610;2023-02-28T15:37:29;25.45;;;15.45;;
4198;SDS011;2113;50.946;14.610;2023-02-28T15:40:10;25.80;;;13.50;;
4198;SDS011;2113;50.946;14.610;2023-02-28T15:42:41;21.70;;;12.77;;
4198;SDS011;2113;50.946;14.610;2023-02-28T15:45:28;28.23;;;12.00;;